sensor_id;sensor_type;location;lat;lon;timestamp;P1;durP1;ratioP1;P2;durP2;ratioP2
76896;SDS011;65856;52.178;21.176;2023-03-03T00:00:27;127.60;;;51.70;;
76896;SDS011;65856;52.178;21.176;2023-03-03T00:02:55;118.90;;;47.20;;
76896;SDS011;65856;52.178;21.176;2023-03-03T00:05:26;117.30;;;46.20;;
76896;SDS011;65856;52.178;21.176;2023-03-03T00:07:54;118.30;;;49.10;;
76896;SDS011;65856;52.178;21.176;2023-03-03T00:10:22;121.80;;;49.60;;
76896;SDS011;65856;52.178;21.176;2023-03-03T00:12:50;124.30;;;48.70;;
76896;SDS011;65856;52.178;21.176;2023-03-03T00:15:20;116.70;;;46.60;;
76896;SDS011;65856;52.178;21.176;2023-03-03T00:17:50;124.60;;;49.90;;
76896;SDS011;65856;52.178;21.176;2023-03-03T00:20:29;127.60;;;51.50;;
76896;SDS011;65856;52.178;21.176;2023-03-03T00:23:19;130.40;;;50.40;;
76896;SDS011;65856;52.178;21.176;2023-03-03T00:25:53;126.40;;;49.80;;
76896;SDS011;65856;52.178;21.176;2023-03-03T00:28:25;130.10;;;53.00;;
76896;SDS011;65856;52.178;21.176;2023-03-03T00:30:56;127.40;;;51.00;;
76896;SDS011;65856;52.178;21.176;2023-03-03T00:33:31;127.10;;;51.70;;
76896;SDS011;65856;52.178;21.176;2023-03-03T00:36:22;123.30;;;49.80;;
76896;SDS011;65856;52.178;21.176;2023-03-03T00:39:09;122.30;;;49.90;;
76896;SDS011;65856;52.178;21.176;2023-03-03T00:41:43;126.30;;;50.10;;
76896;SDS011;65856;52.178;21.176;2023-03-03T00:44:39;120.00;;;48.50;;
76896;SDS011;65856;52.178;21.176;2023-03-03T00:47:23;118.80;;;47.00;;
76896;SDS011;65856;52.178;21.176;2023-03-03T00:50:27;114.40;;;45.80;;
76896;SDS011;65856;52.178;21.176;2023-03-03T00:53:06;114.70;;;47.40;;
76896;SDS011;65856;52.178;21.176;2023-03-03T00:55:39;109.20;;;43.70;;
76896;SDS011;65856;52.178;21.176;2023-03-03T00:58:07;114.60;;;44.60;;
76896;SDS011;65856;52.178;21.176;2023-03-03T01:00:36;110.60;;;44.30;;
76896;SDS011;65856;52.178;21.176;2023-03-03T01:03:07;103.60;;;41.70;;
76896;SDS011;65856;52.178;21.176;2023-03-03T01:05:36;93.00;;;39.50;;
76896;SDS011;65856;52.178;21.176;2023-03-03T01:08:05;105.10;;;44.50;;
76896;SDS011;65856;52.178;21.176;2023-03-03T01:10:36;110.80;;;45.60;;
76896;SDS011;65856;52.178;21.176;2023-03-03T01:13:07;109.60;;;43.90;;
76896;SDS011;65856;52.178;21.176;2023-03-03T01:15:36;103.80;;;42.40;;
76896;SDS011;65856;52.178;21.176;2023-03-03T01:18:05;117.20;;;44.50;;
76896;SDS011;65856;52.178;21.176;2023-03-03T01:20:34;106.80;;;42.60;;
76896;SDS011;65856;52.178;21.176;2023-03-03T01:23:02;112.70;;;45.60;;
76896;SDS011;65856;52.178;21.176;2023-03-03T01:25:30;111.60;;;46.00;;
76896;SDS011;65856;52.178;21.176;2023-03-03T01:27:58;115.80;;;45.80;;
76896;SDS011;65856;52.178;21.176;2023-03-03T01:30:26;108.40;;;43.20;;
76896;SDS011;65856;52.178;21.176;2023-03-03T01:32:55;101.20;;;40.40;;
76896;SDS011;65856;52.178;21.176;2023-03-03T01:35:23;93.50;;;39.20;;
76896;SDS011;65856;52.178;21.176;2023-03-03T01:37:51;96.10;;;36.00;;
76896;SDS011;65856;52.178;21.176;2023-03-03T01:40:22;87.30;;;35.80;;
76896;SDS011;65856;52.178;21.176;2023-03-03T01:42:51;92.40;;;36.80;;
76896;SDS011;65856;52.178;21.176;2023-03-03T01:45:22;89.50;;;37.00;;
76896;SDS011;65856;52.178;21.176;2023-03-03T01:50:31;84.30;;;32.40;;
76896;SDS011;65856;52.178;21.176;2023-03-03T01:53:09;95.00;;;37.80;;
76896;SDS011;65856;52.178;21.176;2023-03-03T01:55:42;89.90;;;36.80;;
76896;SDS011;65856;52.178;21.176;2023-03-03T01:58:16;93.50;;;37.20;;
76896;SDS011;65856;52.178;21.176;2023-03-03T02:00:53;92.50;;;35.50;;
76896;SDS011;65856;52.178;21.176;2023-03-03T02:03:24;100.00;;;38.10;;
76896;SDS011;65856;52.178;21.176;2023-03-03T02:05:55;94.70;;;37.90;;
76896;SDS011;65856;52.178;21.176;2023-03-03T02:08:29;94.10;;;36.40;;
76896;SDS011;65856;52.178;21.176;2023-03-03T02:11:06;99.80;;;37.90;;
76896;SDS011;65856;52.178;21.176;2023-03-03T02:13:36;101.20;;;38.40;;
76896;SDS011;65856;52.178;21.176;2023-03-03T02:16:05;89.20;;;36.00;;
76896;SDS011;65856;52.178;21.176;2023-03-03T02:18:34;88.00;;;35.10;;
76896;SDS011;65856;52.178;21.176;2023-03-03T02:21:06;91.30;;;36.30;;
76896;SDS011;65856;52.178;21.176;2023-03-03T02:23:41;95.50;;;36.40;;
76896;SDS011;65856;52.178;21.176;2023-03-03T02:26:19;95.00;;;36.50;;
76896;SDS011;65856;52.178;21.176;2023-03-03T02:28:49;80.70;;;30.30;;
76896;SDS011;65856;52.178;21.176;2023-03-03T02:31:19;80.40;;;31.60;;
76896;SDS011;65856;52.178;21.176;2023-03-03T02:33:50;82.00;;;32.50;;
76896;SDS011;65856;52.178;21.176;2023-03-03T02:36:21;89.60;;;35.20;;
76896;SDS011;65856;52.178;21.176;2023-03-03T02:38:55;89.50;;;34.50;;
76896;SDS011;65856;52.178;21.176;2023-03-03T02:41:32;83.40;;;31.70;;
76896;SDS011;65856;52.178;21.176;2023-03-03T02:44:06;85.50;;;33.80;;
76896;SDS011;65856;52.178;21.176;2023-03-03T02:46:37;85.90;;;33.40;;
76896;SDS011;65856;52.178;21.176;2023-03-03T02:49:08;90.00;;;33.70;;
76896;SDS011;65856;52.178;21.176;2023-03-03T02:51:39;81.70;;;32.60;;
76896;SDS011;65856;52.178;21.176;2023-03-03T02:54:08;87.10;;;31.60;;
76896;SDS011;65856;52.178;21.176;2023-03-03T02:56:38;75.60;;;31.10;;
76896;SDS011;65856;52.178;21.176;2023-03-03T02:59:06;79.60;;;30.60;;
76896;SDS011;65856;52.178;21.176;2023-03-03T03:01:34;84.30;;;31.30;;
76896;SDS011;65856;52.178;21.176;2023-03-03T03:04:05;72.00;;;29.60;;
76896;SDS011;65856;52.178;21.176;2023-03-03T03:06:35;73.30;;;29.90;;
76896;SDS011;65856;52.178;21.176;2023-03-03T03:09:04;70.50;;;29.80;;
76896;SDS011;65856;52.178;21.176;2023-03-03T03:11:33;76.20;;;32.60;;
76896;SDS011;65856;52.178;21.176;2023-03-03T03:14:02;78.20;;;31.50;;
76896;SDS011;65856;52.178;21.176;2023-03-03T03:16:31;86.40;;;32.10;;
76896;SDS011;65856;52.178;21.176;2023-03-03T03:19:00;79.60;;;32.00;;
76896;SDS011;65856;52.178;21.176;2023-03-03T03:21:29;70.60;;;29.20;;
76896;SDS011;65856;52.178;21.176;2023-03-03T03:23:59;74.80;;;29.10;;
76896;SDS011;65856;52.178;21.176;2023-03-03T03:26:27;76.20;;;29.70;;
76896;SDS011;65856;52.178;21.176;2023-03-03T03:28:55;72.40;;;29.40;;
76896;SDS011;65856;52.178;21.176;2023-03-03T03:31:23;77.50;;;29.10;;
76896;SDS011;65856;52.178;21.176;2023-03-03T03:33:51;75.20;;;28.40;;
76896;SDS011;65856;52.178;21.176;2023-03-03T03:36:19;63.70;;;26.40;;
76896;SDS011;65856;52.178;21.176;2023-03-03T03:38:47;67.10;;;26.00;;
76896;SDS011;65856;52.178;21.176;2023-03-03T03:41:15;62.20;;;25.40;;
76896;SDS011;65856;52.178;21.176;2023-03-03T03:43:44;62.10;;;26.30;;
76896;SDS011;65856;52.178;21.176;2023-03-03T03:46:12;61.70;;;26.40;;
76896;SDS011;65856;52.178;21.176;2023-03-03T03:48:40;65.20;;;25.40;;
76896;SDS011;65856;52.178;21.176;2023-03-03T03:51:09;60.20;;;24.10;;
76896;SDS011;65856;52.178;21.176;2023-03-03T03:53:38;55.10;;;24.20;;
76896;SDS011;65856;52.178;21.176;2023-03-03T03:56:07;59.50;;;25.30;;
76896;SDS011;65856;52.178;21.176;2023-03-03T03:58:35;61.00;;;23.30;;
76896;SDS011;65856;52.178;21.176;2023-03-03T04:01:05;56.50;;;23.30;;
76896;SDS011;65856;52.178;21.176;2023-03-03T04:03:34;60.70;;;23.00;;
76896;SDS011;65856;52.178;21.176;2023-03-03T04:06:03;50.70;;;21.50;;
76896;SDS011;65856;52.178;21.176;2023-03-03T04:08:31;53.20;;;22.80;;
76896;SDS011;65856;52.178;21.176;2023-03-03T04:10:59;51.00;;;22.40;;
76896;SDS011;65856;52.178;21.176;2023-03-03T04:13:27;54.80;;;23.70;;
76896;SDS011;65856;52.178;21.176;2023-03-03T04:15:57;53.20;;;22.50;;
76896;SDS011;65856;52.178;21.176;2023-03-03T04:18:25;56.60;;;22.70;;
76896;SDS011;65856;52.178;21.176;2023-03-03T04:20:53;53.70;;;23.00;;
76896;SDS011;65856;52.178;21.176;2023-03-03T04:23:21;53.50;;;23.20;;
76896;SDS011;65856;52.178;21.176;2023-03-03T04:25:49;51.10;;;22.10;;
76896;SDS011;65856;52.178;21.176;2023-03-03T04:28:18;49.10;;;21.00;;
76896;SDS011;65856;52.178;21.176;2023-03-03T04:30:47;53.80;;;22.30;;
76896;SDS011;65856;52.178;21.176;2023-03-03T04:33:15;47.50;;;20.70;;
76896;SDS011;65856;52.178;21.176;2023-03-03T04:35:43;50.60;;;21.60;;
76896;SDS011;65856;52.178;21.176;2023-03-03T04:38:12;44.70;;;19.60;;
76896;SDS011;65856;52.178;21.176;2023-03-03T04:40:40;51.80;;;23.30;;
76896;SDS011;65856;52.178;21.176;2023-03-03T04:43:09;53.50;;;22.40;;
76896;SDS011;65856;52.178;21.176;2023-03-03T04:45:38;53.90;;;20.40;;
76896;SDS011;65856;52.178;21.176;2023-03-03T04:48:06;46.00;;;20.70;;
76896;SDS011;65856;52.178;21.176;2023-03-03T04:50:34;50.90;;;21.20;;
76896;SDS011;65856;52.178;21.176;2023-03-03T04:53:02;44.70;;;20.20;;
76896;SDS011;65856;52.178;21.176;2023-03-03T04:55:30;43.40;;;20.60;;
76896;SDS011;65856;52.178;21.176;2023-03-03T04:57:58;52.50;;;21.40;;
76896;SDS011;65856;52.178;21.176;2023-03-03T05:00:27;52.20;;;20.80;;
76896;SDS011;65856;52.178;21.176;2023-03-03T05:02:55;50.20;;;21.10;;
76896;SDS011;65856;52.178;21.176;2023-03-03T05:05:23;52.40;;;21.60;;
76896;SDS011;65856;52.178;21.176;2023-03-03T05:07:51;55.60;;;21.50;;
76896;SDS011;65856;52.178;21.176;2023-03-03T05:10:19;53.50;;;21.00;;
76896;SDS011;65856;52.178;21.176;2023-03-03T05:12:48;52.60;;;20.80;;
76896;SDS011;65856;52.178;21.176;2023-03-03T05:15:16;50.80;;;21.90;;
76896;SDS011;65856;52.178;21.176;2023-03-03T05:17:44;50.10;;;20.70;;
76896;SDS011;65856;52.178;21.176;2023-03-03T05:20:13;51.10;;;20.30;;
76896;SDS011;65856;52.178;21.176;2023-03-03T05:22:41;51.50;;;20.40;;
76896;SDS011;65856;52.178;21.176;2023-03-03T05:25:09;50.40;;;20.60;;
76896;SDS011;65856;52.178;21.176;2023-03-03T05:27:38;45.80;;;19.20;;
76896;SDS011;65856;52.178;21.176;2023-03-03T05:30:09;49.60;;;20.10;;
76896;SDS011;65856;52.178;21.176;2023-03-03T05:32:38;48.80;;;19.40;;
76896;SDS011;65856;52.178;21.176;2023-03-03T05:35:07;56.30;;;20.90;;
76896;SDS011;65856;52.178;21.176;2023-03-03T05:37:36;50.40;;;20.50;;
76896;SDS011;65856;52.178;21.176;2023-03-03T05:40:11;50.80;;;21.10;;
76896;SDS011;65856;52.178;21.176;2023-03-03T05:42:40;48.30;;;19.90;;
76896;SDS011;65856;52.178;21.176;2023-03-03T05:45:10;51.10;;;20.40;;
76896;SDS011;65856;52.178;21.176;2023-03-03T05:47:38;51.70;;;21.60;;
76896;SDS011;65856;52.178;21.176;2023-03-03T05:50:08;57.00;;;23.00;;
76896;SDS011;65856;52.178;21.176;2023-03-03T05:52:37;62.30;;;24.60;;
76896;SDS011;65856;52.178;21.176;2023-03-03T05:55:07;61.70;;;23.60;;
76896;SDS011;65856;52.178;21.176;2023-03-03T05:57:36;54.40;;;22.60;;
76896;SDS011;65856;52.178;21.176;2023-03-03T06:00:06;58.40;;;23.80;;
76896;SDS011;65856;52.178;21.176;2023-03-03T06:02:36;56.10;;;24.00;;
76896;SDS011;65856;52.178;21.176;2023-03-03T06:05:05;59.10;;;24.60;;
76896;SDS011;65856;52.178;21.176;2023-03-03T06:07:34;57.70;;;23.40;;
76896;SDS011;65856;52.178;21.176;2023-03-03T06:10:03;59.90;;;23.20;;
76896;SDS011;65856;52.178;21.176;2023-03-03T06:12:33;55.70;;;24.00;;
76896;SDS011;65856;52.178;21.176;2023-03-03T06:15:01;63.50;;;25.60;;
76896;SDS011;65856;52.178;21.176;2023-03-03T06:17:29;65.10;;;25.50;;
76896;SDS011;65856;52.178;21.176;2023-03-03T06:19:57;66.10;;;25.60;;
76896;SDS011;65856;52.178;21.176;2023-03-03T06:22:25;60.70;;;25.70;;
76896;SDS011;65856;52.178;21.176;2023-03-03T06:24:53;59.40;;;25.90;;
76896;SDS011;65856;52.178;21.176;2023-03-03T06:27:22;65.00;;;25.40;;
76896;SDS011;65856;52.178;21.176;2023-03-03T06:29:50;62.30;;;25.10;;
76896;SDS011;65856;52.178;21.176;2023-03-03T06:32:18;70.40;;;25.80;;
76896;SDS011;65856;52.178;21.176;2023-03-03T06:34:46;70.50;;;26.10;;
76896;SDS011;65856;52.178;21.176;2023-03-03T06:37:14;65.60;;;27.60;;
76896;SDS011;65856;52.178;21.176;2023-03-03T06:39:42;69.00;;;27.00;;
76896;SDS011;65856;52.178;21.176;2023-03-03T06:42:10;68.40;;;27.10;;
76896;SDS011;65856;52.178;21.176;2023-03-03T06:44:38;77.90;;;28.50;;
76896;SDS011;65856;52.178;21.176;2023-03-03T06:47:06;72.10;;;28.50;;
76896;SDS011;65856;52.178;21.176;2023-03-03T06:49:35;75.40;;;28.00;;
76896;SDS011;65856;52.178;21.176;2023-03-03T06:52:11;76.50;;;29.70;;
76896;SDS011;65856;52.178;21.176;2023-03-03T06:54:40;76.30;;;28.50;;
76896;SDS011;65856;52.178;21.176;2023-03-03T06:57:16;72.70;;;27.60;;
76896;SDS011;65856;52.178;21.176;2023-03-03T06:59:52;73.10;;;27.80;;
76896;SDS011;65856;52.178;21.176;2023-03-03T07:02:21;70.80;;;27.30;;
76896;SDS011;65856;52.178;21.176;2023-03-03T07:04:49;66.30;;;25.70;;
76896;SDS011;65856;52.178;21.176;2023-03-03T07:07:21;72.80;;;25.60;;
76896;SDS011;65856;52.178;21.176;2023-03-03T07:09:52;76.10;;;26.90;;
76896;SDS011;65856;52.178;21.176;2023-03-03T07:12:23;72.10;;;26.40;;
76896;SDS011;65856;52.178;21.176;2023-03-03T07:14:59;72.50;;;25.70;;
76896;SDS011;65856;52.178;21.176;2023-03-03T07:17:41;66.80;;;26.30;;
76896;SDS011;65856;52.178;21.176;2023-03-03T07:20:17;69.60;;;26.40;;
76896;SDS011;65856;52.178;21.176;2023-03-03T07:22:47;69.10;;;26.40;;
76896;SDS011;65856;52.178;21.176;2023-03-03T07:25:24;74.80;;;26.30;;
76896;SDS011;65856;52.178;21.176;2023-03-03T07:27:58;71.10;;;26.20;;
76896;SDS011;65856;52.178;21.176;2023-03-03T07:30:38;61.00;;;23.50;;
76896;SDS011;65856;52.178;21.176;2023-03-03T07:33:21;65.90;;;23.50;;
76896;SDS011;65856;52.178;21.176;2023-03-03T07:35:53;69.80;;;23.90;;
76896;SDS011;65856;52.178;21.176;2023-03-03T07:38:33;63.20;;;22.90;;
76896;SDS011;65856;52.178;21.176;2023-03-03T07:41:09;63.90;;;22.20;;
76896;SDS011;65856;52.178;21.176;2023-03-03T07:43:48;56.40;;;21.00;;
76896;SDS011;65856;52.178;21.176;2023-03-03T07:46:29;56.90;;;20.30;;
76896;SDS011;65856;52.178;21.176;2023-03-03T07:49:13;55.60;;;20.50;;
76896;SDS011;65856;52.178;21.176;2023-03-03T07:51:53;60.50;;;20.30;;
76896;SDS011;65856;52.178;21.176;2023-03-03T07:54:35;57.00;;;20.50;;
76896;SDS011;65856;52.178;21.176;2023-03-03T07:57:14;50.80;;;17.80;;
76896;SDS011;65856;52.178;21.176;2023-03-03T07:59:49;61.30;;;20.90;;
76896;SDS011;65856;52.178;21.176;2023-03-03T08:02:40;60.40;;;20.70;;
76896;SDS011;65856;52.178;21.176;2023-03-03T08:05:37;58.30;;;20.00;;
76896;SDS011;65856;52.178;21.176;2023-03-03T08:08:18;58.40;;;20.10;;
76896;SDS011;65856;52.178;21.176;2023-03-03T08:10:55;49.90;;;18.40;;
76896;SDS011;65856;52.178;21.176;2023-03-03T08:13:27;57.60;;;20.30;;
76896;SDS011;65856;52.178;21.176;2023-03-03T08:16:20;56.90;;;20.40;;
76896;SDS011;65856;52.178;21.176;2023-03-03T08:18:57;58.70;;;20.30;;
76896;SDS011;65856;52.178;21.176;2023-03-03T08:21:30;59.70;;;19.70;;
76896;SDS011;65856;52.178;21.176;2023-03-03T08:24:01;58.50;;;20.10;;
76896;SDS011;65856;52.178;21.176;2023-03-03T08:26:29;58.80;;;19.70;;
76896;SDS011;65856;52.178;21.176;2023-03-03T08:28:57;58.30;;;19.40;;
76896;SDS011;65856;52.178;21.176;2023-03-03T08:31:26;60.60;;;18.40;;
76896;SDS011;65856;52.178;21.176;2023-03-03T08:33:55;56.60;;;19.00;;
76896;SDS011;65856;52.178;21.176;2023-03-03T08:36:24;62.20;;;21.70;;
76896;SDS011;65856;52.178;21.176;2023-03-03T08:38:52;63.20;;;20.80;;
76896;SDS011;65856;52.178;21.176;2023-03-03T08:41:20;61.10;;;20.30;;
76896;SDS011;65856;52.178;21.176;2023-03-03T08:43:48;53.40;;;19.20;;
76896;SDS011;65856;52.178;21.176;2023-03-03T08:46:16;49.30;;;18.90;;
76896;SDS011;65856;52.178;21.176;2023-03-03T08:48:44;42.90;;;15.70;;
76896;SDS011;65856;52.178;21.176;2023-03-03T08:51:13;46.30;;;16.90;;
76896;SDS011;65856;52.178;21.176;2023-03-03T08:53:41;41.50;;;16.30;;
76896;SDS011;65856;52.178;21.176;2023-03-03T08:56:09;46.50;;;16.60;;
76896;SDS011;65856;52.178;21.176;2023-03-03T08:58:37;28.60;;;10.60;;
76896;SDS011;65856;52.178;21.176;2023-03-03T09:01:07;43.60;;;14.60;;
76896;SDS011;65856;52.178;21.176;2023-03-03T09:03:36;40.60;;;14.80;;
76896;SDS011;65856;52.178;21.176;2023-03-03T09:06:04;38.10;;;14.70;;
76896;SDS011;65856;52.178;21.176;2023-03-03T09:08:33;43.00;;;15.50;;
76896;SDS011;65856;52.178;21.176;2023-03-03T09:11:01;39.50;;;14.10;;
76896;SDS011;65856;52.178;21.176;2023-03-03T09:13:30;40.30;;;14.60;;
76896;SDS011;65856;52.178;21.176;2023-03-03T09:15:58;42.20;;;13.90;;
76896;SDS011;65856;52.178;21.176;2023-03-03T09:18:33;36.70;;;14.80;;
76896;SDS011;65856;52.178;21.176;2023-03-03T09:21:16;43.30;;;16.00;;
76896;SDS011;65856;52.178;21.176;2023-03-03T09:23:51;41.40;;;15.80;;
76896;SDS011;65856;52.178;21.176;2023-03-03T09:26:29;43.50;;;15.90;;
76896;SDS011;65856;52.178;21.176;2023-03-03T09:29:22;36.00;;;12.90;;
76896;SDS011;65856;52.178;21.176;2023-03-03T09:31:54;41.30;;;16.90;;
76896;SDS011;65856;52.178;21.176;2023-03-03T09:34:24;39.70;;;15.40;;
76896;SDS011;65856;52.178;21.176;2023-03-03T09:37:16;38.90;;;14.80;;
76896;SDS011;65856;52.178;21.176;2023-03-03T09:39:49;41.80;;;14.30;;
76896;SDS011;65856;52.178;21.176;2023-03-03T09:42:45;43.90;;;15.50;;
76896;SDS011;65856;52.178;21.176;2023-03-03T09:45:40;39.30;;;14.50;;
76896;SDS011;65856;52.178;21.176;2023-03-03T09:48:32;43.80;;;16.20;;
76896;SDS011;65856;52.178;21.176;2023-03-03T09:54:29;43.00;;;16.30;;
76896;SDS011;65856;52.178;21.176;2023-03-03T09:57:11;42.10;;;15.50;;
76896;SDS011;65856;52.178;21.176;2023-03-03T09:59:54;38.50;;;15.00;;
76896;SDS011;65856;52.178;21.176;2023-03-03T10:02:46;38.20;;;14.60;;
76896;SDS011;65856;52.178;21.176;2023-03-03T10:05:35;37.80;;;13.80;;
76896;SDS011;65856;52.178;21.176;2023-03-03T10:08:23;39.90;;;14.60;;
76896;SDS011;65856;52.178;21.176;2023-03-03T10:11:06;38.90;;;14.90;;
76896;SDS011;65856;52.178;21.176;2023-03-03T10:13:49;41.40;;;15.80;;
76896;SDS011;65856;52.178;21.176;2023-03-03T10:16:38;39.60;;;14.20;;
76896;SDS011;65856;52.178;21.176;2023-03-03T10:19:36;41.70;;;15.80;;
76896;SDS011;65856;52.178;21.176;2023-03-03T10:22:16;42.80;;;14.50;;
76896;SDS011;65856;52.178;21.176;2023-03-03T10:25:09;36.30;;;14.20;;
76896;SDS011;65856;52.178;21.176;2023-03-03T10:27:55;43.80;;;15.50;;
76896;SDS011;65856;52.178;21.176;2023-03-03T10:30:41;51.10;;;17.10;;
76896;SDS011;65856;52.178;21.176;2023-03-03T10:33:23;42.30;;;16.40;;
76896;SDS011;65856;52.178;21.176;2023-03-03T10:36:16;38.20;;;13.00;;
76896;SDS011;65856;52.178;21.176;2023-03-03T10:39:01;44.40;;;16.90;;
76896;SDS011;65856;52.178;21.176;2023-03-03T10:41:53;42.90;;;14.60;;
76896;SDS011;65856;52.178;21.176;2023-03-03T10:44:40;49.30;;;16.30;;
76896;SDS011;65856;52.178;21.176;2023-03-03T10:47:31;46.40;;;15.70;;
76896;SDS011;65856;52.178;21.176;2023-03-03T10:50:15;38.70;;;14.90;;
76896;SDS011;65856;52.178;21.176;2023-03-03T10:52:51;39.40;;;14.30;;
76896;SDS011;65856;52.178;21.176;2023-03-03T10:55:35;38.30;;;13.80;;
76896;SDS011;65856;52.178;21.176;2023-03-03T10:58:30;43.50;;;15.60;;
76896;SDS011;65856;52.178;21.176;2023-03-03T11:01:16;39.10;;;14.30;;
76896;SDS011;65856;52.178;21.176;2023-03-03T11:04:12;42.90;;;14.70;;
76896;SDS011;65856;52.178;21.176;2023-03-03T11:06:54;42.70;;;15.30;;
76896;SDS011;65856;52.178;21.176;2023-03-03T11:09:37;44.90;;;16.00;;
76896;SDS011;65856;52.178;21.176;2023-03-03T11:12:25;42.30;;;15.50;;
76896;SDS011;65856;52.178;21.176;2023-03-03T11:15:12;44.20;;;15.50;;
76896;SDS011;65856;52.178;21.176;2023-03-03T11:18:05;46.50;;;16.00;;
76896;SDS011;65856;52.178;21.176;2023-03-03T11:20:47;38.20;;;14.20;;
76896;SDS011;65856;52.178;21.176;2023-03-03T11:23:51;39.70;;;14.80;;
76896;SDS011;65856;52.178;21.176;2023-03-03T11:29:52;37.30;;;14.30;;
76896;SDS011;65856;52.178;21.176;2023-03-03T11:32:35;37.80;;;14.40;;
76896;SDS011;65856;52.178;21.176;2023-03-03T11:35:22;31.40;;;12.40;;
76896;SDS011;65856;52.178;21.176;2023-03-03T11:38:04;34.40;;;12.40;;
76896;SDS011;65856;52.178;21.176;2023-03-03T11:40:46;36.70;;;13.00;;
76896;SDS011;65856;52.178;21.176;2023-03-03T11:43:21;38.50;;;13.90;;
76896;SDS011;65856;52.178;21.176;2023-03-03T11:45:56;33.10;;;13.20;;
76896;SDS011;65856;52.178;21.176;2023-03-03T11:48:33;36.20;;;12.60;;
76896;SDS011;65856;52.178;21.176;2023-03-03T11:51:12;35.20;;;14.00;;
76896;SDS011;65856;52.178;21.176;2023-03-03T11:53:56;31.10;;;12.30;;
76896;SDS011;65856;52.178;21.176;2023-03-03T11:56:32;27.40;;;11.70;;
76896;SDS011;65856;52.178;21.176;2023-03-03T11:59:18;33.20;;;13.10;;
76896;SDS011;65856;52.178;21.176;2023-03-03T12:01:56;29.30;;;12.50;;
76896;SDS011;65856;52.178;21.176;2023-03-03T12:07:12;30.30;;;11.60;;
76896;SDS011;65856;52.178;21.176;2023-03-03T12:09:57;29.80;;;12.10;;
76896;SDS011;65856;52.178;21.176;2023-03-03T12:12:35;26.60;;;11.80;;
76896;SDS011;65856;52.178;21.176;2023-03-03T12:15:18;29.90;;;11.90;;
76896;SDS011;65856;52.178;21.176;2023-03-03T12:18:04;25.10;;;11.90;;
76896;SDS011;65856;52.178;21.176;2023-03-03T12:20:48;21.70;;;9.40;;
76896;SDS011;65856;52.178;21.176;2023-03-03T12:23:39;28.80;;;12.20;;
76896;SDS011;65856;52.178;21.176;2023-03-03T12:26:23;28.50;;;12.00;;
76896;SDS011;65856;52.178;21.176;2023-03-03T12:29:01;31.20;;;12.80;;
76896;SDS011;65856;52.178;21.176;2023-03-03T12:34:20;27.20;;;12.10;;
76896;SDS011;65856;52.178;21.176;2023-03-03T12:37:05;26.00;;;10.40;;
76896;SDS011;65856;52.178;21.176;2023-03-03T12:39:59;27.30;;;11.50;;
76896;SDS011;65856;52.178;21.176;2023-03-03T12:42:40;27.60;;;11.90;;
76896;SDS011;65856;52.178;21.176;2023-03-03T12:45:29;25.30;;;11.10;;
76896;SDS011;65856;52.178;21.176;2023-03-03T12:48:08;26.00;;;11.00;;
76896;SDS011;65856;52.178;21.176;2023-03-03T12:50:49;26.50;;;10.70;;
76896;SDS011;65856;52.178;21.176;2023-03-03T12:53:39;28.40;;;12.10;;
76896;SDS011;65856;52.178;21.176;2023-03-03T12:56:23;24.90;;;10.90;;
76896;SDS011;65856;52.178;21.176;2023-03-03T12:59:01;24.60;;;10.70;;
76896;SDS011;65856;52.178;21.176;2023-03-03T13:01:47;24.50;;;10.60;;
76896;SDS011;65856;52.178;21.176;2023-03-03T13:04:32;24.70;;;10.40;;
76896;SDS011;65856;52.178;21.176;2023-03-03T13:07:12;22.70;;;9.80;;
76896;SDS011;65856;52.178;21.176;2023-03-03T13:09:59;34.30;;;12.00;;
76896;SDS011;65856;52.178;21.176;2023-03-03T13:12:37;26.50;;;11.30;;
76896;SDS011;65856;52.178;21.176;2023-03-03T13:15:14;23.90;;;10.60;;
76896;SDS011;65856;52.178;21.176;2023-03-03T13:17:55;23.60;;;9.40;;
76896;SDS011;65856;52.178;21.176;2023-03-03T13:20:42;22.60;;;9.80;;
76896;SDS011;65856;52.178;21.176;2023-03-03T13:23:21;23.90;;;10.90;;
76896;SDS011;65856;52.178;21.176;2023-03-03T13:26:09;25.80;;;11.60;;
76896;SDS011;65856;52.178;21.176;2023-03-03T13:28:54;29.10;;;11.60;;
76896;SDS011;65856;52.178;21.176;2023-03-03T13:31:30;29.90;;;11.70;;
76896;SDS011;65856;52.178;21.176;2023-03-03T13:34:01;27.20;;;11.20;;
76896;SDS011;65856;52.178;21.176;2023-03-03T13:36:34;26.80;;;11.10;;
76896;SDS011;65856;52.178;21.176;2023-03-03T13:39:13;28.40;;;11.30;;
76896;SDS011;65856;52.178;21.176;2023-03-03T13:41:50;27.60;;;11.80;;
76896;SDS011;65856;52.178;21.176;2023-03-03T13:44:25;24.40;;;10.00;;
76896;SDS011;65856;52.178;21.176;2023-03-03T13:47:04;26.40;;;11.10;;
76896;SDS011;65856;52.178;21.176;2023-03-03T13:49:56;25.40;;;10.80;;
76896;SDS011;65856;52.178;21.176;2023-03-03T13:52:32;26.00;;;10.40;;
76896;SDS011;65856;52.178;21.176;2023-03-03T13:55:17;29.70;;;11.90;;
76896;SDS011;65856;52.178;21.176;2023-03-03T13:57:58;29.20;;;11.90;;
76896;SDS011;65856;52.178;21.176;2023-03-03T14:00:46;28.30;;;11.40;;
76896;SDS011;65856;52.178;21.176;2023-03-03T14:03:34;25.60;;;10.00;;
76896;SDS011;65856;52.178;21.176;2023-03-03T14:06:22;28.60;;;10.40;;
76896;SDS011;65856;52.178;21.176;2023-03-03T14:09:34;26.80;;;10.60;;
76896;SDS011;65856;52.178;21.176;2023-03-03T14:12:15;29.70;;;12.10;;
76896;SDS011;65856;52.178;21.176;2023-03-03T14:14:58;25.70;;;10.70;;
76896;SDS011;65856;52.178;21.176;2023-03-03T14:17:36;30.80;;;11.70;;
76896;SDS011;65856;52.178;21.176;2023-03-03T14:20:19;32.00;;;12.40;;
76896;SDS011;65856;52.178;21.176;2023-03-03T14:22:54;29.70;;;11.80;;
76896;SDS011;65856;52.178;21.176;2023-03-03T14:25:25;33.60;;;12.20;;
76896;SDS011;65856;52.178;21.176;2023-03-03T14:34:40;31.00;;;11.40;;
76896;SDS011;65856;52.178;21.176;2023-03-03T14:37:26;29.40;;;11.50;;
76896;SDS011;65856;52.178;21.176;2023-03-03T14:40:17;28.90;;;10.20;;
76896;SDS011;65856;52.178;21.176;2023-03-03T14:45:33;23.10;;;8.90;;
76896;SDS011;65856;52.178;21.176;2023-03-03T14:48:14;25.00;;;10.30;;
76896;SDS011;65856;52.178;21.176;2023-03-03T14:50:51;28.10;;;11.40;;
76896;SDS011;65856;52.178;21.176;2023-03-03T14:53:34;26.30;;;11.40;;
76896;SDS011;65856;52.178;21.176;2023-03-03T14:56:26;31.30;;;11.40;;
76896;SDS011;65856;52.178;21.176;2023-03-03T14:59:18;34.10;;;12.60;;
76896;SDS011;65856;52.178;21.176;2023-03-03T15:01:59;29.50;;;11.00;;
76896;SDS011;65856;52.178;21.176;2023-03-03T15:05:17;31.80;;;13.00;;
76896;SDS011;65856;52.178;21.176;2023-03-03T15:07:53;37.30;;;13.40;;
76896;SDS011;65856;52.178;21.176;2023-03-03T15:10:33;31.00;;;11.20;;
76896;SDS011;65856;52.178;21.176;2023-03-03T15:13:31;29.80;;;11.30;;
76896;SDS011;65856;52.178;21.176;2023-03-03T15:16:09;28.30;;;11.40;;
76896;SDS011;65856;52.178;21.176;2023-03-03T15:19:16;34.10;;;11.80;;
76896;SDS011;65856;52.178;21.176;2023-03-03T15:22:00;30.30;;;11.90;;